Time;durP1;ratioP1;P1;durP2;ratioP2;P2;SDS_P1;SDS_P2;PMS_P1;PMS_P2;Temp;Humidity;BMP_temperature;BMP_pressure;BME280_temperature;BME280_humidity;BME280_pressure;Samples;Min_cycle;Max_cycle;Signal;HPM_P1;HPM_P2
2022/04/04 00:00:12;;;;;;;25.13;24.03;;;20.30;41.70;;;;;;5054336;28;20456;-46
2022/04/04 00:02:41;;;;;;;25.00;24.00;;;20.30;41.60;;;;;;5054160;28;20519;-46
2022/04/04 00:05:08;;;;;;;25.47;24.40;;;20.30;41.70;;;;;;5054251;28;20807;-46
2022/04/04 00:07:35;;;;;;;23.93;23.03;;;20.30;41.70;;;;;;5054017;28;20480;-47
2022/04/04 00:10:02;;;;;;;23.80;22.90;;;20.30;41.70;;;;;;5054168;28;20449;-45
2022/04/04 00:12:29;;;;;;;24.93;24.03;;;20.30;41.70;;;;;;5054224;28;20539;-48
2022/04/04 00:14:55;;;;;;;24.20;23.30;;;20.30;41.70;;;;;;5054221;28;20460;-46
2022/04/04 00:17:23;;;;;;;26.47;25.47;;;20.30;41.70;;;;;;5053897;28;20444;-45
2022/04/04 00:19:51;;;;;;;24.60;23.70;;;20.30;41.70;;;;;;5053779;28;20455;-46
2022/04/04 00:22:17;;;;;;;25.10;24.20;;;20.30;41.70;;;;;;5053961;28;20977;-46
2022/04/04 00:24:44;;;;;;;25.17;24.27;;;20.30;41.70;;;;;;5053869;28;20953;-45
2022/04/04 00:27:11;;;;;;;25.60;24.60;;;20.30;41.70;;;;;;5053615;28;20496;-45
2022/04/04 00:29:38;;;;;;;25.40;24.40;;;20.30;41.70;;;;;;5054043;28;20936;-46
2022/04/04 00:32:05;;;;;;;23.80;23.00;;;20.30;41.70;;;;;;5053797;28;20931;-46
2022/04/04 00:34:32;;;;;;;24.47;23.57;;;20.30;41.70;;;;;;5053822;28;20803;-45
2022/04/04 00:37:00;;;;;;;25.13;24.23;;;20.30;41.70;;;;;;5053194;28;20465;-45
2022/04/04 00:39:27;;;;;;;24.63;23.73;;;20.30;41.70;;;;;;5052790;28;20452;-46
2022/04/04 00:41:53;;;;;;;24.43;23.53;;;20.30;41.60;;;;;;5053603;28;20452;-47
2022/04/04 00:44:20;;;;;;;25.40;24.50;;;20.30;41.60;;;;;;5053566;28;20461;-47
2022/04/04 00:46:47;;;;;;;24.93;24.03;;;20.40;41.70;;;;;;5053116;28;20484;-46
2022/04/04 00:49:14;;;;;;;25.10;24.10;;;20.30;41.60;;;;;;5053523;28;20471;-48
2022/04/04 00:51:41;;;;;;;24.87;23.97;;;20.30;41.70;;;;;;5053273;28;20456;-46
2022/04/04 00:54:09;;;;;;;25.93;24.93;;;20.30;41.60;;;;;;5053455;28;20471;-46
2022/04/04 00:56:37;;;;;;;24.07;23.17;;;20.40;41.60;;;;;;5053034;28;20472;-45
2022/04/04 00:59:05;;;;;;;24.90;24.00;;;20.30;41.60;;;;;;5053363;28;20837;-47
2022/04/04 01:01:31;;;;;;;25.20;24.20;;;20.30;41.60;;;;;;5053068;28;20451;-46
2022/04/04 01:03:59;;;;;;;25.83;24.83;;;20.30;41.60;;;;;;5053310;28;20444;-46
2022/04/04 01:06:26;;;;;;;26.00;25.00;;;20.30;41.50;;;;;;5052880;28;20477;-46
2022/04/04 01:08:53;;;;;;;24.47;23.47;;;20.30;41.60;;;;;;5052798;28;20448;-45
2022/04/04 01:11:21;;;;;;;23.93;23.03;;;20.30;41.60;;;;;;5053183;28;20452;-47
2022/04/04 01:13:49;;;;;;;23.97;23.07;;;20.30;41.50;;;;;;5053022;28;20449;-45
2022/04/04 01:16:16;;;;;;;24.17;23.27;;;20.30;41.50;;;;;;5052727;28;20468;-50
2022/04/04 01:18:43;;;;;;;24.43;23.53;;;20.20;41.40;;;;;;5053034;28;20452;-45
2022/04/04 01:21:10;;;;;;;24.43;23.53;;;20.20;41.40;;;;;;5052929;28;20459;-47
2022/04/04 01:23:41;;;;;;;24.30;23.40;;;20.30;41.60;;;;;;5052802;28;20535;-46
2022/04/04 01:26:09;;;;;;;23.77;22.87;;;20.30;41.60;;;;;;5052263;28;20472;-46
2022/04/04 01:28:36;;;;;;;25.00;24.10;;;20.30;41.50;;;;;;5052568;28;20489;-46
2022/04/04 01:31:04;;;;;;;25.80;24.80;;;20.20;41.40;;;;;;5052676;28;20444;-46
2022/04/04 01:33:31;;;;;;;25.27;24.37;;;20.20;41.50;;;;;;5052389;28;20480;-46
2022/04/04 01:35:58;;;;;;;26.63;25.63;;;20.20;41.50;;;;;;5052417;28;20468;-45
2022/04/04 01:38:25;;;;;;;25.43;24.53;;;20.20;41.60;;;;;;5052431;28;20444;-48
2022/04/04 01:40:53;;;;;;;25.40;24.40;;;20.20;41.50;;;;;;5052547;28;20452;-45
2022/04/04 01:43:21;;;;;;;25.00;24.10;;;20.20;41.50;;;;;;5052411;28;20452;-47
2022/04/04 01:48:36;;;;;;;23.90;23.03;;;20.20;41.50;;;;;;5052478;28;20483;-46
2022/04/04 01:51:02;;;;;;;25.63;24.63;;;20.30;41.60;;;;;;5052214;28;20448;-46
2022/04/04 01:53:31;;;;;;;24.53;23.63;;;20.30;41.50;;;;;;5052562;28;20445;-47
2022/04/04 01:56:01;;;;;;;24.47;23.57;;;20.20;41.50;;;;;;5051925;28;20480;-46
2022/04/04 01:58:29;;;;;;;24.30;23.40;;;20.20;41.60;;;;;;5052141;28;20445;-46
2022/04/04 02:01:00;;;;;;;24.50;23.60;;;20.20;41.50;;;;;;5052207;28;20451;-46
2022/04/04 02:03:28;;;;;;;25.37;24.40;;;20.20;41.50;;;;;;5051709;28;20483;-49
2022/04/04 02:05:55;;;;;;;24.80;23.90;;;20.20;41.60;;;;;;5051847;28;20478;-46
2022/04/04 02:08:22;;;;;;;28.90;27.80;;;20.20;41.60;;;;;;5051796;28;20488;-46
2022/04/04 02:10:49;;;;;;;27.80;26.70;;;20.20;41.50;;;;;;5052000;28;20444;-45
2022/04/04 02:13:15;;;;;;;24.70;23.80;;;20.20;41.50;;;;;;5052031;28;20456;-46
2022/04/04 02:15:44;;;;;;;25.17;24.27;;;20.20;41.50;;;;;;5051711;28;20461;-49
2022/04/04 02:18:11;;;;;;;26.10;25.10;;;20.30;41.50;;;;;;5051460;28;20441;-46
2022/04/04 02:20:38;;;;;;;25.37;24.37;;;20.30;41.40;;;;;;5051821;28;20444;-46
2022/04/04 02:23:05;;;;;;;26.60;25.53;;;20.30;41.40;;;;;;5051755;28;20444;-46
2022/04/04 02:25:31;;;;;;;25.20;24.30;;;20.20;41.40;;;;;;5051629;28;20990;-45
2022/04/04 02:27:58;;;;;;;25.60;24.60;;;20.20;41.40;;;;;;5051539;28;20484;-47
2022/04/04 02:30:25;;;;;;;26.10;25.10;;;20.20;41.40;;;;;;5051654;28;20459;-46
2022/04/04 02:32:53;;;;;;;26.30;25.30;;;20.20;41.40;;;;;;5051756;28;20960;-45
2022/04/04 02:35:20;;;;;;;25.87;24.87;;;20.20;41.40;;;;;;5050908;28;20484;-45
2022/04/04 02:37:47;;;;;;;25.30;24.40;;;20.20;41.40;;;;;;5051462;28;20445;-46
2022/04/04 02:40:14;;;;;;;25.77;24.87;;;20.20;41.40;;;;;;5051806;28;20444;-46
2022/04/04 02:42:41;;;;;;;24.90;24.00;;;20.30;41.40;;;;;;5051501;28;20453;-46
2022/04/04 02:45:09;;;;;;;25.70;24.70;;;20.30;41.30;;;;;;5051615;28;20444;-46
2022/04/04 02:47:36;;;;;;;26.53;25.53;;;20.30;41.80;;;;;;5051144;28;20484;-45
2022/04/04 02:50:04;;;;;;;26.03;25.03;;;20.20;41.30;;;;;;5051193;28;20444;-46
2022/04/04 02:52:31;;;;;;;26.30;25.30;;;20.20;41.30;;;;;;5051156;28;20452;-47
2022/04/04 02:54:58;;;;;;;25.97;25.07;;;20.20;41.30;;;;;;5051206;28;20451;-46
2022/04/04 02:57:24;;;;;;;26.17;25.10;;;20.20;41.30;;;;;;5051222;28;20436;-46
2022/04/04 02:59:50;;;;;;;26.43;25.40;;;20.20;41.30;;;;;;5051592;28;20799;-46
2022/04/04 03:02:17;;;;;;;26.60;25.60;;;20.20;41.40;;;;;;5052999;28;20712;-46
2022/04/04 03:04:44;;;;;;;26.57;25.57;;;20.20;41.40;;;;;;5055352;28;20452;-46
2022/04/04 03:07:12;;;;;;;27.00;25.90;;;20.10;41.40;;;;;;5054742;28;20480;-45
2022/04/04 03:09:39;;;;;;;27.50;26.47;;;20.20;41.50;;;;;;5055110;28;20441;-46
2022/04/04 03:12:07;;;;;;;26.30;25.30;;;20.20;41.40;;;;;;5055172;28;20444;-46
2022/04/04 03:14:34;;;;;;;26.40;25.40;;;20.20;41.40;;;;;;5035404;28;20788;-45
2022/04/04 03:17:01;;;;;;;25.07;24.07;;;20.20;41.30;;;;;;5035014;28;20480;-46
2022/04/04 03:19:28;;;;;;;25.30;24.40;;;20.20;41.40;;;;;;5035343;28;20445;-46
2022/04/04 03:21:56;;;;;;;25.83;24.80;;;20.20;41.50;;;;;;5035198;28;20948;-46
2022/04/04 03:24:24;;;;;;;26.20;25.30;;;20.20;41.40;;;;;;5053354;28;20499;-48
2022/04/04 03:26:51;;;;;;;25.90;25.00;;;20.10;41.40;;;;;;5054770;28;20495;-46
2022/04/04 03:29:18;;;;;;;26.50;25.50;;;20.10;41.40;;;;;;5055178;28;20915;-46
2022/04/04 03:31:45;;;;;;;26.80;25.77;;;20.10;41.50;;;;;;5054926;28;21018;-46
2022/04/04 03:34:12;;;;;;;26.20;25.20;;;20.10;41.50;;;;;;5054936;28;20444;-46
2022/04/04 03:36:39;;;;;;;25.90;24.90;;;20.10;41.60;;;;;;5054571;28;20464;-46
2022/04/04 03:39:05;;;;;;;28.00;26.90;;;20.10;41.50;;;;;;5054529;28;20547;-46
2022/04/04 03:41:33;;;;;;;26.80;25.90;;;20.10;41.50;;;;;;5054780;28;20823;-49
2022/04/04 03:44:01;;;;;;;26.40;25.40;;;20.10;41.50;;;;;;5054702;28;20448;-46
2022/04/04 03:46:28;;;;;;;25.80;24.90;;;20.00;41.50;;;;;;5054371;28;20990;-46
2022/04/04 03:48:54;;;;;;;26.30;25.30;;;20.00;41.60;;;;;;5054567;28;20475;-46
2022/04/04 03:51:21;;;;;;;25.80;24.87;;;20.00;41.50;;;;;;5054637;28;20444;-45
2022/04/04 03:53:48;;;;;;;26.47;25.47;;;20.00;41.50;;;;;;5054583;28;20448;-47
2022/04/04 03:56:15;;;;;;;25.47;24.53;;;20.00;41.60;;;;;;5053846;28;20487;-47
2022/04/04 03:58:43;;;;;;;27.50;26.50;;;20.00;41.60;;;;;;5054440;28;20558;-46
2022/04/04 04:01:10;;;;;;;28.53;27.40;;;20.00;41.60;;;;;;5054512;28;20447;-46
2022/04/04 04:03:37;;;;;;;28.13;27.03;;;19.90;41.60;;;;;;5054349;28;20955;-46
2022/04/04 04:06:14;;;;;;;28.70;27.70;;;20.00;41.60;;;;;;5054030;28;20464;-46
2022/04/04 04:08:43;;;;;;;28.10;27.10;;;20.00;41.60;;;;;;5054188;28;20487;-48
2022/04/04 04:11:10;;;;;;;29.20;28.10;;;20.00;41.50;;;;;;5053994;28;20794;-46
2022/04/04 04:13:38;;;;;;;28.07;26.97;;;20.00;41.40;;;;;;5052999;28;20448;-47
2022/04/04 04:16:09;;;;;;;28.80;27.60;;;20.00;41.50;;;;;;5053853;28;20460;-46
2022/04/04 04:18:36;;;;;;;29.10;28.00;;;20.10;41.50;;;;;;5053966;28;20446;-47
2022/04/04 04:21:03;;;;;;;27.50;26.50;;;20.10;41.40;;;;;;5053783;28;20445;-46
2022/04/04 04:23:30;;;;;;;28.07;26.97;;;20.10;41.30;;;;;;5053929;28;20455;-46
2022/04/04 04:25:57;;;;;;;27.17;26.17;;;20.20;41.20;;;;;;5053768;28;20464;-46
2022/04/04 04:28:23;;;;;;;26.80;25.80;;;20.20;41.20;;;;;;5053485;28;20515;-47
2022/04/04 04:30:50;;;;;;;27.87;26.57;;;20.20;41.30;;;;;;5053855;28;20447;-46
2022/04/04 04:33:18;;;;;;;26.37;25.33;;;20.20;41.10;;;;;;5053938;28;20445;-47
2022/04/04 04:35:46;;;;;;;26.83;25.73;;;20.20;41.10;;;;;;5053413;28;20475;-50
2022/04/04 04:38:13;;;;;;;26.13;25.03;;;20.20;41.00;;;;;;5053787;28;20855;-46
2022/04/04 04:40:40;;;;;;;27.40;26.30;;;20.20;41.00;;;;;;5053631;28;20444;-46
2022/04/04 04:43:07;;;;;;;26.27;25.27;;;20.20;41.00;;;;;;5053410;28;20472;-46
2022/04/04 04:45:34;;;;;;;27.07;25.97;;;20.20;41.00;;;;;;5033430;28;20461;-48
2022/04/04 04:48:01;;;;;;;25.90;24.90;;;20.20;41.00;;;;;;5033613;28;20859;-46
2022/04/04 04:50:30;;;;;;;26.57;25.47;;;20.20;40.90;;;;;;5033461;28;20452;-48
2022/04/04 04:52:58;;;;;;;26.90;25.90;;;20.20;40.70;;;;;;5033544;28;20449;-46
2022/04/04 04:55:26;;;;;;;26.70;25.60;;;20.10;40.60;;;;;;5033077;28;20829;-46
2022/04/04 04:57:53;;;;;;;26.00;25.10;;;20.10;40.60;;;;;;5033330;28;20964;-46
2022/04/04 05:00:23;;;;;;;29.13;28.03;;;20.10;40.60;;;;;;5041727;28;20444;-46
2022/04/04 05:03:24;;;;;;;28.70;27.50;;;20.10;40.60;;;;;;5053035;28;20448;-46
2022/04/04 05:05:40;;;;;;;32.33;30.57;;;20.10;40.70;;;;;;5052884;28;20551;-46
2022/04/04 05:08:07;;;;;;;28.37;27.17;;;20.00;41.30;;;;;;5052969;28;20487;-46
2022/04/04 05:10:35;;;;;;;27.23;26.03;;;20.00;42.00;;;;;;5053063;28;20440;-46
2022/04/04 05:13:01;;;;;;;27.97;26.60;;;20.00;41.80;;;;;;5052104;28;20456;-46
2022/04/04 05:15:28;;;;;;;29.80;28.50;;;20.00;42.10;;;;;;5052754;28;20460;-46
2022/04/04 05:17:55;;;;;;;28.27;27.10;;;20.00;41.90;;;;;;5053016;28;20441;-46
2022/04/04 05:20:22;;;;;;;29.30;28.10;;;20.00;41.70;;;;;;5052848;28;21009;-47
2022/04/04 05:22:50;;;;;;;30.77;29.17;;;20.00;41.60;;;;;;5052688;28;20452;-46
2022/04/04 05:25:17;;;;;;;28.73;27.60;;;20.00;41.40;;;;;;5052372;28;20551;-48
2022/04/04 05:27:43;;;;;;;29.80;28.30;;;20.00;41.20;;;;;;5052645;28;20440;-46
2022/04/04 05:30:11;;;;;;;28.93;27.67;;;19.90;41.20;;;;;;5052657;28;20457;-46
2022/04/04 05:32:38;;;;;;;29.97;28.77;;;20.00;41.10;;;;;;5052718;28;20448;-47
2022/04/04 05:35:06;;;;;;;28.27;27.20;;;20.00;41.10;;;;;;5052550;28;20817;-46
2022/04/04 05:37:33;;;;;;;28.30;27.20;;;19.90;41.10;;;;;;5052390;28;20577;-46
2022/04/04 05:40:01;;;;;;;27.40;26.20;;;19.90;41.00;;;;;;5052487;28;20444;-49
2022/04/04 05:42:29;;;;;;;28.70;27.60;;;19.80;40.90;;;;;;5052506;28;20455;-47
2022/04/04 05:44:56;;;;;;;29.47;28.23;;;19.80;40.80;;;;;;5052444;28;20457;-46
2022/04/04 05:47:23;;;;;;;29.37;28.27;;;19.80;40.80;;;;;;5052221;28;20440;-46
2022/04/04 05:49:50;;;;;;;30.80;29.70;;;19.80;40.80;;;;;;5052270;28;20487;-46
2022/04/04 05:52:17;;;;;;;27.80;26.70;;;19.80;40.80;;;;;;5052485;28;20860;-46
2022/04/04 05:54:54;;;;;;;28.13;27.03;;;19.80;40.80;;;;;;5052197;28;20858;-49
2022/04/04 05:57:22;;;;;;;30.97;29.77;;;19.80;40.70;;;;;;5052561;28;20467;-46
2022/04/04 05:59:49;;;;;;;29.37;28.17;;;19.90;40.70;;;;;;5052260;28;20455;-46
2022/04/04 06:02:16;;;;;;;28.30;27.20;;;19.90;40.60;;;;;;5052141;28;20449;-46
2022/04/04 06:04:43;;;;;;;28.87;27.77;;;20.00;40.40;;;;;;5052030;28;20811;-46
2022/04/04 06:07:09;;;;;;;27.87;26.77;;;20.10;40.40;;;;;;5051683;28;21018;-46
2022/04/04 06:09:36;;;;;;;28.17;27.07;;;20.10;40.20;;;;;;5052004;28;20487;-47
2022/04/04 06:12:04;;;;;;;27.43;26.37;;;20.10;40.30;;;;;;5051978;28;20455;-46
2022/04/04 06:14:32;;;;;;;30.43;29.13;;;20.10;40.20;;;;;;5051829;28;20455;-46
2022/04/04 06:16:59;;;;;;;28.53;27.37;;;20.20;39.90;;;;;;5051544;28;20806;-49
2022/04/04 06:19:27;;;;;;;28.80;27.60;;;20.20;39.80;;;;;;5051828;28;20445;-46
2022/04/04 06:21:54;;;;;;;29.00;27.80;;;20.20;39.70;;;;;;5051795;28;20886;-46
2022/04/04 06:24:21;;;;;;;26.50;25.50;;;20.20;39.80;;;;;;5051718;28;20440;-46
2022/04/04 06:26:48;;;;;;;26.83;25.63;;;20.20;39.70;;;;;;5051470;28;20498;-46
2022/04/04 06:29:15;;;;;;;27.73;26.43;;;20.20;39.60;;;;;;5051619;28;20524;-49
2022/04/04 06:31:44;;;;;;;26.43;25.43;;;20.20;39.40;;;;;;5051519;28;20453;-46
2022/04/04 06:34:11;;;;;;;27.90;26.87;;;20.10;39.50;;;;;;5051494;28;20448;-49
2022/04/04 06:36:38;;;;;;;28.93;27.83;;;20.10;39.60;;;;;;5050617;28;21006;-46
2022/04/04 06:39:05;;;;;;;28.83;27.60;;;20.00;39.50;;;;;;5051472;28;20540;-46
2022/04/04 06:41:32;;;;;;;28.50;27.47;;;20.00;39.40;;;;;;5051608;28;20502;-46
2022/04/04 06:43:59;;;;;;;29.80;28.70;;;20.10;39.50;;;;;;5051479;28;20447;-47
2022/04/04 06:46:26;;;;;;;28.80;27.67;;;20.00;39.40;;;;;;5050990;28;20469;-46
2022/04/04 06:48:54;;;;;;;29.10;28.00;;;20.00;39.40;;;;;;5051256;28;20480;-46
2022/04/04 06:51:21;;;;;;;30.03;28.73;;;20.10;39.40;;;;;;5051377;28;20453;-50
2022/04/04 06:53:49;;;;;;;29.53;28.40;;;20.10;39.30;;;;;;5051214;28;20456;-46
2022/04/04 06:56:15;;;;;;;28.90;27.80;;;20.10;39.20;;;;;;5050986;28;20820;-46
2022/04/04 06:58:42;;;;;;;29.57;28.37;;;20.10;39.10;;;;;;5051378;28;20810;-46
2022/04/04 07:01:09;;;;;;;28.97;27.77;;;20.10;39.20;;;;;;5051161;28;20936;-46
2022/04/04 07:03:36;;;;;;;27.47;26.37;;;20.20;39.20;;;;;;5051295;28;21009;-46
2022/04/04 07:06:05;;;;;;;27.13;26.13;;;20.20;39.00;;;;;;5050984;28;20473;-46
2022/04/04 07:08:33;;;;;;;28.10;27.10;;;20.20;38.90;;;;;;5051101;28;20480;-47
2022/04/04 07:11:00;;;;;;;28.60;27.50;;;20.20;38.90;;;;;;5051167;28;20451;-47
2022/04/04 07:13:27;;;;;;;28.53;27.47;;;20.20;38.90;;;;;;5051336;28;20824;-46
2022/04/04 07:15:54;;;;;;;28.37;27.27;;;20.30;38.90;;;;;;5050830;28;20556;-49
2022/04/04 07:18:20;;;;;;;28.40;27.30;;;20.40;38.90;;;;;;5051136;28;20456;-47
2022/04/04 07:20:47;;;;;;;30.07;28.97;;;20.40;38.80;;;;;;5051151;28;20447;-46
2022/04/04 07:23:15;;;;;;;29.20;28.10;;;20.50;38.60;;;;;;5051038;28;20456;-47
2022/04/04 07:25:42;;;;;;;29.27;28.03;;;20.60;38.50;;;;;;5050790;28;20492;-46
2022/04/04 07:28:09;;;;;;;28.90;27.80;;;20.70;38.40;;;;;;5050959;28;20815;-47
2022/04/04 07:30:36;;;;;;;29.60;28.50;;;20.80;38.20;;;;;;5050953;28;20794;-46
2022/04/04 07:33:04;;;;;;;30.13;28.93;;;20.90;38.00;;;;;;5050960;28;20455;-46
2022/04/04 07:35:31;;;;;;;28.07;27.00;;;21.00;37.90;;;;;;5050693;28;20468;-47
2022/04/04 07:37:58;;;;;;;30.10;28.90;;;21.00;37.70;;;;;;5050970;28;20741;-46
2022/04/04 07:40:27;;;;;;;31.03;29.73;;;21.00;37.60;;;;;;5050945;28;20444;-47
2022/04/04 07:42:54;;;;;;;29.57;28.47;;;21.00;37.60;;;;;;5051063;28;20877;-46
2022/04/04 07:45:21;;;;;;;27.93;26.87;;;21.00;37.60;;;;;;5050706;28;20472;-46
2022/04/04 07:47:49;;;;;;;29.93;28.73;;;21.00;37.60;;;;;;5051651;28;20444;-47
2022/04/04 07:50:16;;;;;;;28.83;27.73;;;21.00;37.50;;;;;;5054509;28;20476;-48
2022/04/04 07:52:43;;;;;;;30.20;28.60;;;21.00;37.50;;;;;;5054530;28;20446;-46
2022/04/04 07:55:10;;;;;;;28.50;27.40;;;21.00;37.50;;;;;;5054232;28;20452;-46
2022/04/04 07:57:38;;;;;;;29.67;28.43;;;21.00;37.30;;;;;;5054187;28;20444;-47
2022/04/04 08:00:07;;;;;;;29.30;28.20;;;21.00;37.30;;;;;;5054120;28;20804;-46
2022/04/04 08:02:34;;;;;;;30.47;29.27;;;21.10;37.20;;;;;;5054412;28;20452;-46
2022/04/04 08:05:01;;;;;;;28.50;27.40;;;21.00;36.90;;;;;;5054220;28;20487;-48
2022/04/04 08:07:28;;;;;;;29.03;28.03;;;21.00;37.00;;;;;;5054088;28;20445;-46
2022/04/04 08:09:54;;;;;;;27.37;26.37;;;20.90;36.80;;;;;;5054115;28;20586;-46
2022/04/04 08:12:25;;;;;;;28.67;27.57;;;20.90;36.90;;;;;;5054281;28;20992;-46
2022/04/04 08:14:53;;;;;;;29.57;28.47;;;20.90;37.00;;;;;;5054085;28;20445;-47
2022/04/04 08:17:20;;;;;;;27.10;26.10;;;20.90;37.00;;;;;;5053726;28;20855;-46
2022/04/04 08:19:46;;;;;;;27.73;26.73;;;20.90;36.90;;;;;;5053992;28;20441;-46
2022/04/04 08:22:13;;;;;;;25.17;24.27;;;20.90;36.80;;;;;;5053984;28;20441;-49
2022/04/04 08:24:41;;;;;;;27.00;26.00;;;20.80;36.80;;;;;;5054018;28;20440;-47
2022/04/04 08:27:10;;;;;;;26.83;25.83;;;20.80;36.70;;;;;;5053650;28;20563;-47
2022/04/04 08:29:36;;;;;;;26.67;25.67;;;20.80;36.70;;;;;;5053763;28;20512;-46
2022/04/04 08:32:05;;;;;;;28.60;27.50;;;20.80;36.90;;;;;;5053763;28;20444;-46
2022/04/04 08:34:32;;;;;;;27.90;26.90;;;20.80;36.90;;;;;;5053754;28;20445;-46
2022/04/04 08:36:59;;;;;;;28.57;27.47;;;20.80;36.90;;;;;;5053348;28;20464;-46
2022/04/04 08:39:26;;;;;;;26.30;25.20;;;20.80;36.90;;;;;;5053705;28;20799;-47
2022/04/04 08:41:56;;;;;;;25.17;24.07;;;21.00;36.90;;;;;;5053651;28;20809;-47
2022/04/04 08:44:24;;;;;;;26.50;25.40;;;21.00;36.80;;;;;;5053586;28;20451;-46
2022/04/04 08:46:52;;;;;;;25.47;24.37;;;21.20;36.90;;;;;;5053351;28;20827;-47
2022/04/04 08:49:20;;;;;;;26.90;25.80;;;21.20;36.80;;;;;;5053408;28;20492;-46
2022/04/04 08:51:49;;;;;;;26.30;25.13;;;21.20;36.50;;;;;;5053386;28;20459;-47
2022/04/04 08:54:16;;;;;;;27.90;26.70;;;21.30;36.50;;;;;;5053402;28;20452;-49
2022/04/04 08:56:43;;;;;;;27.13;26.13;;;21.50;36.20;;;;;;5052911;28;20480;-49
2022/04/04 08:59:10;;;;;;;26.70;25.60;;;21.60;36.10;;;;;;5052621;28;20437;-47
2022/04/04 09:01:37;;;;;;;27.83;26.10;;;21.60;36.10;;;;;;5053232;28;20452;-46
2022/04/04 09:04:14;;;;;;;29.03;27.83;;;21.70;36.00;;;;;;5053157;28;20455;-46
2022/04/04 09:06:50;;;;;;;24.57;23.67;;;21.80;35.80;;;;;;5052969;28;20464;-47
2022/04/04 09:09:26;;;;;;;25.80;24.80;;;21.80;35.80;;;;;;5053027;28;20480;-49
2022/04/04 09:12:04;;;;;;;25.93;24.93;;;21.80;35.70;;;;;;5053069;28;20445;-47
2022/04/04 09:14:35;;;;;;;26.00;24.90;;;21.80;35.50;;;;;;5053152;28;20451;-46
2022/04/04 09:17:02;;;;;;;26.77;25.70;;;21.90;35.50;;;;;;5052726;28;20464;-46
2022/04/04 09:19:30;;;;;;;26.63;25.53;;;21.90;35.40;;;;;;5052969;28;21100;-46
2022/04/04 09:22:03;;;;;;;27.47;26.37;;;21.90;35.30;;;;;;5053032;28;20448;-46
2022/04/04 09:24:44;;;;;;;26.40;25.30;;;21.90;35.10;;;;;;5052886;28;20453;-46
2022/04/04 09:27:11;;;;;;;26.77;25.67;;;21.90;35.20;;;;;;5052418;28;20464;-47
2022/04/04 09:29:42;;;;;;;28.13;26.97;;;21.90;35.20;;;;;;5052756;28;20516;-46
2022/04/04 09:32:12;;;;;;;25.63;24.53;;;21.90;35.20;;;;;;5052809;28;20500;-47
2022/04/04 09:35:04;;;;;;;25.80;24.80;;;21.90;35.20;;;;;;5052659;28;20506;-46
2022/04/04 09:37:34;;;;;;;25.87;24.80;;;21.80;35.10;;;;;;5052565;28;20506;-46
2022/04/04 09:40:10;;;;;;;26.03;25.03;;;21.70;35.10;;;;;;5052713;28;20495;-50
2022/04/04 09:42:37;;;;;;;26.20;25.20;;;21.60;35.30;;;;;;5052495;28;20443;-46
2022/04/04 09:45:06;;;;;;;25.13;24.13;;;21.50;35.20;;;;;;5051619;28;20963;-46
2022/04/04 09:47:49;;;;;;;25.20;24.20;;;21.50;35.30;;;;;;5051833;28;20444;-47
2022/04/04 09:50:36;;;;;;;25.43;24.43;;;21.40;35.40;;;;;;5050499;28;20483;-47
2022/04/04 09:53:05;;;;;;;25.53;24.53;;;21.20;35.40;;;;;;5052373;28;20448;-45
2022/04/04 09:55:34;;;;;;;25.80;24.70;;;21.10;35.70;;;;;;5051787;28;20499;-51
2022/04/04 09:58:04;;;;;;;25.60;24.50;;;21.10;36.60;;;;;;5052185;28;20467;-46
2022/04/04 10:00:31;;;;;;;26.33;25.23;;;21.00;37.10;;;;;;5052299;28;20534;-46
2022/04/04 10:03:01;;;;;;;27.83;26.60;;;21.00;37.40;;;;;;5052182;28;20448;-50
2022/04/04 10:05:29;;;;;;;27.07;25.97;;;21.00;37.90;;;;;;5051723;28;20472;-47
2022/04/04 10:07:57;;;;;;;26.47;25.40;;;21.00;38.00;;;;;;5051913;28;20445;-48
2022/04/04 10:10:30;;;;;;;26.30;25.20;;;21.10;38.00;;;;;;5052057;28;20850;-47
2022/04/04 10:12:58;;;;;;;25.00;24.00;;;21.10;38.00;;;;;;5051856;28;20527;-48
2022/04/04 10:15:27;;;;;;;26.77;25.77;;;21.10;37.90;;;;;;5051254;28;20471;-48
2022/04/04 10:17:55;;;;;;;25.90;24.87;;;21.20;38.50;;;;;;5051921;28;20513;-47
2022/04/04 10:20:22;;;;;;;28.40;27.30;;;21.30;38.80;;;;;;5051743;28;20468;-47
2022/04/04 10:22:52;;;;;;;26.50;25.40;;;21.20;38.30;;;;;;5051323;28;20990;-47
2022/04/04 10:25:22;;;;;;;27.77;26.47;;;21.20;38.40;;;;;;5051538;28;20464;-48
2022/04/04 10:27:51;;;;;;;27.00;25.90;;;21.20;38.40;;;;;;5051679;28;20444;-47
2022/04/04 10:30:18;;;;;;;27.57;26.47;;;21.10;38.50;;;;;;5051625;28;20491;-49
2022/04/04 10:32:51;;;;;;;25.83;24.73;;;21.10;38.70;;;;;;5051287;28;20456;-46
2022/04/04 10:35:22;;;;;;;26.63;25.63;;;21.10;38.80;;;;;;5050963;28;20476;-48
2022/04/04 10:37:49;;;;;;;26.20;25.20;;;21.10;38.80;;;;;;5051655;28;20440;-51
2022/04/04 10:40:22;;;;;;;26.37;25.27;;;21.20;38.80;;;;;;5051597;28;20470;-45
2022/04/04 10:43:09;;;;;;;26.77;25.63;;;21.20;38.60;;;;;;5051018;28;20845;-48
2022/04/04 10:45:53;;;;;;;27.27;26.27;;;21.20;38.30;;;;;;5051316;28;20471;-46
2022/04/04 10:48:21;;;;;;;26.87;25.77;;;21.20;38.20;;;;;;5051460;28;20455;-46
2022/04/04 10:50:48;;;;;;;28.23;27.13;;;21.10;37.90;;;;;;5051408;28;20476;-46
2022/04/04 10:53:15;;;;;;;27.97;26.77;;;21.10;37.70;;;;;;5051308;28;20972;-46
2022/04/04 10:55:52;;;;;;;27.10;26.00;;;21.00;37.70;;;;;;5050904;28;21243;-46
2022/04/04 10:58:27;;;;;;;27.50;26.30;;;21.00;37.60;;;;;;5051246;28;20494;-49
2022/04/04 11:01:00;;;;;;;26.80;25.70;;;21.00;37.60;;;;;;5051331;28;20448;-46
2022/04/04 11:03:31;;;;;;;27.87;26.57;;;21.00;37.40;;;;;;5051146;28;20454;-46
2022/04/04 11:09:05;;;;;;;27.27;26.20;;;20.90;37.40;;;;;;5051357;28;20424;-47
2022/04/04 11:11:49;;;;;;;28.67;27.57;;;20.80;37.40;;;;;;5051038;28;20510;-47
2022/04/04 11:14:19;;;;;;;27.83;26.63;;;20.80;37.60;;;;;;5051186;28;20444;-48
2022/04/04 11:17:33;;;;;;;28.30;27.10;;;20.80;37.60;;;;;;5051065;28;20468;-50
2022/04/04 11:20:02;;;;;;;28.00;26.80;;;20.70;37.50;;;;;;5051216;28;20535;-46
2022/04/04 11:22:31;;;;;;;28.47;27.37;;;20.50;37.50;;;;;;5051521;28;20523;-46
2022/04/04 11:25:03;;;;;;;27.10;26.00;;;20.50;37.70;;;;;;5055008;28;20448;-47
2022/04/04 11:27:30;;;;;;;28.07;26.97;;;20.40;37.70;;;;;;5054939;28;20448;-47
2022/04/04 11:29:59;;;;;;;26.90;25.67;;;20.50;37.90;;;;;;5054862;28;20483;-48
2022/04/04 11:32:28;;;;;;;29.60;28.50;;;20.50;37.90;;;;;;5054925;28;20474;-51
2022/04/04 11:34:57;;;;;;;29.30;28.20;;;20.50;37.80;;;;;;5054906;28;20455;-46
2022/04/04 11:37:26;;;;;;;30.40;29.10;;;20.60;37.80;;;;;;5054664;28;20455;-46
2022/04/04 11:40:03;;;;;;;26.60;25.60;;;20.60;37.70;;;;;;5054817;28;20475;-47
2022/04/04 11:42:31;;;;;;;30.20;28.90;;;20.70;37.70;;;;;;5054750;28;20535;-46
2022/04/04 11:45:00;;;;;;;28.90;27.80;;;20.70;37.70;;;;;;5054795;28;20509;-49
2022/04/04 11:47:26;;;;;;;28.70;27.60;;;20.70;37.60;;;;;;5054524;28;20452;-47
2022/04/04 11:49:58;;;;;;;27.90;26.80;;;20.70;37.50;;;;;;5054562;28;20486;-46
2022/04/04 11:52:26;;;;;;;28.90;27.80;;;20.70;37.50;;;;;;5054587;28;20935;-47
2022/04/04 11:54:53;;;;;;;28.97;27.87;;;20.70;37.60;;;;;;5054426;28;20467;-49
2022/04/04 11:57:21;;;;;;;28.30;27.00;;;20.70;37.40;;;;;;5054632;28;21007;-49
2022/04/04 11:59:49;;;;;;;28.47;27.37;;;20.70;37.40;;;;;;5054403;28;20487;-48
2022/04/04 12:02:23;;;;;;;27.97;26.87;;;20.70;37.50;;;;;;5054472;28;20448;-47
2022/04/04 12:04:51;;;;;;;28.00;26.90;;;20.60;37.50;;;;;;5054545;28;20868;-49
2022/04/04 12:07:18;;;;;;;28.67;27.37;;;20.60;37.50;;;;;;5054040;28;20464;-48
2022/04/04 12:09:51;;;;;;;28.27;27.17;;;20.70;37.50;;;;;;5053980;28;20902;-50
2022/04/04 12:12:18;;;;;;;28.60;27.50;;;20.60;37.50;;;;;;5054388;28;20448;-47
2022/04/04 12:14:48;;;;;;;28.50;27.33;;;20.60;37.50;;;;;;5054076;28;20943;-47
2022/04/04 12:17:16;;;;;;;28.50;27.30;;;20.50;37.50;;;;;;5053877;28;20522;-52
2022/04/04 12:19:44;;;;;;;28.00;26.90;;;20.50;37.60;;;;;;5054079;28;20452;-50
2022/04/04 12:24:56;;;;;;;28.37;27.27;;;20.40;37.70;;;;;;5053265;28;20420;-49
2022/04/04 12:27:23;;;;;;;28.67;27.57;;;20.40;37.70;;;;;;5053755;28;20447;-50
2022/04/04 12:29:50;;;;;;;30.43;29.23;;;20.20;37.70;;;;;;5053829;28;20436;-47
2022/04/04 12:32:20;;;;;;;30.47;29.27;;;20.20;37.80;;;;;;5053853;28;20440;-51
2022/04/04 12:34:58;;;;;;;27.10;26.10;;;20.30;37.90;;;;;;5052651;28;20440;-47
2022/04/04 12:37:35;;;;;;;27.93;26.83;;;20.20;37.80;;;;;;5053420;28;20444;-50
2022/04/04 12:40:20;;;;;;;28.50;27.40;;;20.20;37.80;;;;;;5053683;28;20862;-52
2022/04/04 12:42:48;;;;;;;28.63;27.53;;;20.20;37.80;;;;;;5053629;28;20448;-51